Time;durP1;ratioP1;P1;durP2;ratioP2;P2;SDS_P1;SDS_P2;PMS_P1;PMS_P2;Temp;Humidity;BMP_temperature;BMP_pressure;BME280_temperature;BME280_humidity;BME280_pressure;Samples;Min_cycle;Max_cycle;Signal;HPM_P1;HPM_P2
2022/03/23 00:02:19;;;;;;;46.88;34.38;;;8.20;99.90;;;;;;4905910;29;20949;-80
2022/03/23 00:04:45;;;;;;;45.95;34.53;;;8.20;99.90;;;;;;4890191;29;20219;-81
2022/03/23 00:07:11;;;;;;;49.53;36.00;;;8.20;99.90;;;;;;4889756;29;20573;-80
2022/03/23 00:09:37;;;;;;;47.92;34.58;;;8.20;99.90;;;;;;4858198;29;20058;-81
2022/03/23 00:12:03;;;;;;;50.28;36.67;;;8.10;99.90;;;;;;4891892;29;20151;-81
2022/03/23 00:14:28;;;;;;;47.40;36.15;;;8.10;99.90;;;;;;4891198;29;20040;-79
2022/03/23 00:16:54;;;;;;;48.88;36.67;;;8.10;99.90;;;;;;4894466;29;20101;-80
2022/03/23 00:19:20;;;;;;;50.20;36.72;;;8.10;99.90;;;;;;4891560;29;20578;-82
2022/03/23 00:21:45;;;;;;;48.88;36.13;;;8.00;99.90;;;;;;4895116;29;20040;-82
2022/03/23 00:24:11;;;;;;;49.42;35.45;;;8.00;99.90;;;;;;4888637;29;20063;-82
2022/03/23 00:26:37;;;;;;;50.53;36.25;;;8.00;99.90;;;;;;4888994;29;20131;-83
2022/03/23 00:29:03;;;;;;;55.28;36.10;;;8.00;99.90;;;;;;4905833;29;20048;-82
2022/03/23 00:31:30;;;;;;;50.65;36.38;;;8.00;99.90;;;;;;4903619;29;20051;-82
2022/03/23 00:33:57;;;;;;;50.20;35.50;;;8.00;99.90;;;;;;4904511;29;20055;-82
2022/03/23 00:36:23;;;;;;;47.47;36.03;;;7.90;99.90;;;;;;4902252;29;20079;-82
2022/03/23 00:38:50;;;;;;;49.10;35.92;;;7.90;99.90;;;;;;4903670;29;20614;-82
2022/03/23 00:41:16;;;;;;;48.28;35.58;;;7.90;99.90;;;;;;4888040;29;20148;-82
2022/03/23 00:43:42;;;;;;;51.15;36.05;;;7.90;99.90;;;;;;4888333;29;20214;-82
2022/03/23 00:46:08;;;;;;;48.42;35.97;;;7.90;99.90;;;;;;4903158;29;20064;-82
2022/03/23 00:48:34;;;;;;;47.53;35.22;;;7.90;99.90;;;;;;4903760;29;20052;-82
2022/03/23 00:50:59;;;;;;;46.97;34.80;;;7.80;99.90;;;;;;4888686;29;20087;-81
2022/03/23 00:53:25;;;;;;;49.83;34.22;;;7.80;99.90;;;;;;4889769;29;20052;-82
2022/03/23 00:55:51;;;;;;;45.95;32.65;;;7.80;99.90;;;;;;4871654;29;20053;-82
2022/03/23 00:58:17;;;;;;;43.60;32.95;;;7.80;99.90;;;;;;4887624;29;20052;-82
2022/03/23 01:00:44;;;;;;;45.15;34.67;;;7.70;99.90;;;;;;4903415;29;20052;-82
2022/03/23 01:03:10;;;;;;;44.45;33.35;;;7.70;99.90;;;;;;4888389;29;20127;-82
2022/03/23 01:05:36;;;;;;;47.38;34.50;;;7.70;99.90;;;;;;4885804;29;20550;-80
2022/03/23 01:08:02;;;;;;;45.55;32.88;;;7.70;99.90;;;;;;4888948;29;20140;-80
2022/03/23 01:10:28;;;;;;;44.63;32.40;;;7.70;99.90;;;;;;4889544;29;20056;-79
2022/03/23 01:12:54;;;;;;;44.97;34.10;;;7.60;99.90;;;;;;4887380;29;20494;-80
2022/03/23 01:15:20;;;;;;;46.42;34.30;;;7.60;99.90;;;;;;4886727;29;20052;-80
2022/03/23 01:17:46;;;;;;;44.15;31.77;;;7.60;99.90;;;;;;4886275;29;20134;-80
2022/03/23 01:20:14;;;;;;;48.25;33.10;;;7.50;99.90;;;;;;4904144;29;20052;-80
2022/03/23 01:22:43;;;;;;;40.35;31.40;;;7.50;99.90;;;;;;4919651;29;20152;-80
2022/03/23 01:25:09;;;;;;;42.58;30.73;;;7.50;99.90;;;;;;4903224;29;20059;-80
2022/03/23 01:27:36;;;;;;;39.92;30.13;;;7.50;99.90;;;;;;4872269;29;20056;-79
2022/03/23 01:30:05;;;;;;;39.83;30.98;;;7.50;99.90;;;;;;4888495;29;20044;-80
2022/03/23 01:32:34;;;;;;;38.85;30.13;;;7.40;99.90;;;;;;4907263;29;20168;-78
2022/03/23 01:35:00;;;;;;;43.05;32.17;;;7.40;99.90;;;;;;4887689;29;20048;-79
2022/03/23 01:37:26;;;;;;;42.15;31.40;;;7.40;99.90;;;;;;4904040;29;20044;-80
2022/03/23 01:39:52;;;;;;;39.05;29.92;;;7.40;99.90;;;;;;4887541;29;20286;-80
2022/03/23 01:42:17;;;;;;;40.40;29.95;;;7.30;99.90;;;;;;4888461;29;20056;-82
2022/03/23 01:44:43;;;;;;;38.38;28.88;;;7.30;99.90;;;;;;4918511;29;20087;-82
2022/03/23 01:47:11;;;;;;;39.75;28.42;;;7.30;99.90;;;;;;4918756;29;20144;-82
2022/03/23 01:49:48;;;;;;;39.40;28.92;;;7.50;99.90;;;;;;4917609;29;20048;-82
2022/03/23 01:52:17;;;;;;;43.47;29.35;;;7.30;99.90;;;;;;4919618;29;20099;-82
2022/03/23 01:54:44;;;;;;;38.75;28.42;;;7.20;99.90;;;;;;4922930;29;20383;-82
2022/03/23 01:57:13;;;;;;;38.20;29.33;;;7.30;99.90;;;;;;4887206;29;20044;-82
2022/03/23 01:59:39;;;;;;;39.55;28.98;;;7.20;99.90;;;;;;4907434;29;20045;-82
2022/03/23 02:02:06;;;;;;;39.28;29.23;;;7.60;99.90;;;;;;4893425;29;20514;-82
2022/03/23 02:04:32;;;;;;;41.17;29.73;;;7.20;99.90;;;;;;4887000;29;20079;-82
2022/03/23 02:06:58;;;;;;;40.13;29.17;;;7.20;99.90;;;;;;4906397;29;20078;-82
2022/03/23 02:09:26;;;;;;;39.80;30.50;;;7.10;99.90;;;;;;4886702;29;20119;-82
2022/03/23 02:11:53;;;;;;;38.95;28.08;;;7.10;99.90;;;;;;4876327;29;20172;-82
2022/03/23 02:14:20;;;;;;;40.65;29.83;;;7.70;99.90;;;;;;4890338;29;20056;-80
2022/03/23 02:16:47;;;;;;;41.20;30.48;;;7.10;99.90;;;;;;4886037;29;20118;-82
2022/03/23 02:19:14;;;;;;;45.53;30.13;;;7.10;99.90;;;;;;4887344;29;20140;-82
2022/03/23 02:21:47;;;;;;;40.58;30.33;;;7.00;99.90;;;;;;4902525;29;20052;-82
2022/03/23 02:24:14;;;;;;;38.67;29.20;;;7.00;99.90;;;;;;4924596;29;20110;-83
2022/03/23 02:26:41;;;;;;;44.05;31.55;;;7.00;99.90;;;;;;4886252;29;20454;-82
2022/03/23 02:29:07;;;;;;;41.25;29.88;;;7.00;99.90;;;;;;4902849;29;20153;-83
2022/03/23 02:31:34;;;;;;;47.15;32.55;;;7.00;99.90;;;;;;4901810;29;20092;-80
2022/03/23 02:33:59;;;;;;;45.70;32.83;;;6.90;99.90;;;;;;4902016;29;20050;-80
2022/03/23 02:36:25;;;;;;;42.25;30.58;;;6.90;99.90;;;;;;4892797;29;20052;-80
2022/03/23 02:38:51;;;;;;;42.35;31.05;;;6.90;99.90;;;;;;4903784;29;20403;-79
2022/03/23 02:41:17;;;;;;;47.47;33.08;;;6.90;99.90;;;;;;4904733;29;20407;-79
2022/03/23 02:43:43;;;;;;;45.63;32.33;;;6.90;99.90;;;;;;4895112;29;20044;-79
2022/03/23 02:46:17;;;;;;;48.80;34.83;;;6.80;99.90;;;;;;4903392;29;20056;-80
2022/03/23 02:48:44;;;;;;;45.38;32.20;;;6.80;99.90;;;;;;4909539;29;20051;-80
2022/03/23 02:51:09;;;;;;;50.03;34.72;;;6.80;99.90;;;;;;4904034;29;20410;-80
2022/03/23 03:02:40;;;;;;;48.53;33.17;;;6.70;99.90;;;;;;4901527;29;20437;-80
2022/03/23 03:05:08;;;;;;;48.10;33.70;;;7.40;99.90;;;;;;4903282;29;20063;-80
2022/03/23 03:10:20;;;;;;;53.22;36.38;;;6.60;99.90;;;;;;4903671;29;20056;-79
2022/03/23 03:12:46;;;;;;;49.60;35.00;;;6.50;99.90;;;;;;4908861;29;20123;-80
2022/03/23 03:15:13;;;;;;;49.75;34.30;;;6.50;99.90;;;;;;4912040;29;20048;-82
2022/03/23 03:17:39;;;;;;;48.70;33.78;;;6.50;99.90;;;;;;4889081;29;20048;-81
2022/03/23 03:20:06;;;;;;;52.03;35.03;;;6.40;99.90;;;;;;4905366;29;20115;-82
2022/03/23 03:22:39;;;;;;;50.35;35.53;;;6.40;99.90;;;;;;4903944;29;20048;-82
2022/03/23 03:25:06;;;;;;;50.90;35.05;;;6.30;99.90;;;;;;4888294;29;20086;-82
2022/03/23 03:27:35;;;;;;;47.35;34.38;;;6.30;99.90;;;;;;4876267;29;20578;-82
2022/03/23 03:30:05;;;;;;;49.78;34.17;;;6.20;99.90;;;;;;4907988;29;20104;-82
2022/03/23 03:32:31;;;;;;;47.35;33.67;;;6.20;99.90;;;;;;4874254;29;20053;-82
2022/03/23 03:34:57;;;;;;;48.30;34.83;;;6.20;99.90;;;;;;4885561;29;20501;-82
2022/03/23 03:37:23;;;;;;;48.30;34.13;;;6.20;99.90;;;;;;4901913;29;20099;-82
2022/03/23 03:39:49;;;;;;;52.65;37.42;;;6.90;99.90;;;;;;4900735;29;20437;-82
2022/03/23 03:42:15;;;;;;;51.13;35.28;;;6.10;99.90;;;;;;4886672;29;20085;-82
2022/03/23 03:44:41;;;;;;;52.75;36.85;;;6.10;99.90;;;;;;4884585;29;20391;-81
2022/03/23 03:47:08;;;;;;;51.05;36.38;;;6.50;99.90;;;;;;4870122;29;20111;-80
2022/03/23 03:49:34;;;;;;;53.22;36.15;;;6.10;99.90;;;;;;4886577;29;20048;-79
2022/03/23 03:52:01;;;;;;;53.33;36.88;;;6.10;99.90;;;;;;4884911;29;20282;-82
2022/03/23 03:54:26;;;;;;;52.03;35.78;;;6.00;99.90;;;;;;4901213;29;20080;-80
2022/03/23 03:56:52;;;;;;;52.03;36.20;;;6.00;99.90;;;;;;4874894;29;20139;-80
2022/03/23 03:59:18;;;;;;;55.00;36.88;;;6.00;99.90;;;;;;4886067;29;20505;-82
2022/03/23 04:01:43;;;;;;;53.60;36.28;;;6.00;99.90;;;;;;4887242;29;20134;-81
2022/03/23 04:04:09;;;;;;;54.00;36.10;;;6.10;99.90;;;;;;4902920;29;20356;-82
2022/03/23 04:06:35;;;;;;;56.30;38.65;;;6.00;99.90;;;;;;4891963;29;20387;-82
2022/03/23 04:09:00;;;;;;;51.35;36.30;;;5.90;99.90;;;;;;4901057;29;20055;-81
2022/03/23 04:11:26;;;;;;;54.72;38.45;;;5.90;99.90;;;;;;4902400;29;20051;-82
2022/03/23 04:13:52;;;;;;;54.17;36.47;;;5.90;99.90;;;;;;4885477;29;20059;-81
2022/03/23 04:16:18;;;;;;;54.42;37.40;;;5.90;99.90;;;;;;4885606;29;20056;-82
2022/03/23 04:18:43;;;;;;;54.78;35.85;;;6.70;99.90;;;;;;4885225;29;20056;-80
2022/03/23 04:21:09;;;;;;;53.17;36.80;;;5.80;99.90;;;;;;4884493;29;20055;-81
2022/03/23 04:23:35;;;;;;;52.72;36.10;;;5.70;99.90;;;;;;4902644;29;20047;-82
2022/03/23 04:26:01;;;;;;;55.30;37.78;;;5.70;99.90;;;;;;4888364;29;20423;-82
2022/03/23 04:28:27;;;;;;;55.05;37.75;;;5.70;99.90;;;;;;4904785;29;22064;-82
2022/03/23 04:30:52;;;;;;;54.85;39.05;;;5.70;99.90;;;;;;4879365;29;20048;-82
2022/03/23 04:33:18;;;;;;;55.45;38.00;;;5.70;99.90;;;;;;4909409;29;20992;-81
2022/03/23 04:35:44;;;;;;;53.95;37.42;;;5.70;99.90;;;;;;4886650;29;20044;-82
2022/03/23 04:38:09;;;;;;;55.60;37.83;;;5.60;99.90;;;;;;4873293;29;20052;-82
2022/03/23 04:40:35;;;;;;;56.25;36.53;;;5.80;99.90;;;;;;4887094;29;20088;-81
2022/03/23 04:43:01;;;;;;;55.75;38.35;;;5.60;99.90;;;;;;4878533;29;20040;-82
2022/03/23 04:45:27;;;;;;;54.35;38.33;;;5.60;99.90;;;;;;4889178;29;20075;-82
2022/03/23 04:47:52;;;;;;;54.95;38.05;;;5.60;99.90;;;;;;4873650;29;20049;-82
2022/03/23 04:50:19;;;;;;;54.22;37.00;;;5.90;99.90;;;;;;4903743;29;20557;-81
2022/03/23 04:52:46;;;;;;;54.70;37.78;;;5.60;99.90;;;;;;4871832;29;20554;-81
2022/03/23 04:55:13;;;;;;;57.45;37.40;;;5.60;99.90;;;;;;4911338;29;20388;-82
2022/03/23 04:57:40;;;;;;;55.13;37.53;;;5.50;99.90;;;;;;4905125;29;20470;-82
2022/03/23 05:00:10;;;;;;;51.28;35.35;;;6.40;99.90;;;;;;4903280;29;20448;-81
2022/03/23 05:02:38;;;;;;;51.33;35.67;;;5.50;99.90;;;;;;4888433;29;20044;-81
2022/03/23 05:05:08;;;;;;;51.95;35.55;;;5.40;99.90;;;;;;4886719;29;20048;-82
2022/03/23 05:07:35;;;;;;;55.20;37.28;;;5.40;99.90;;;;;;4873491;29;20147;-82
2022/03/23 05:10:02;;;;;;;59.90;38.38;;;5.40;99.90;;;;;;4903021;29;20376;-81
2022/03/23 05:12:28;;;;;;;52.53;36.05;;;5.40;99.90;;;;;;4903093;29;20106;-81
2022/03/23 05:14:54;;;;;;;53.88;35.45;;;5.40;99.90;;;;;;4887485;29;20086;-81
2022/03/23 05:17:19;;;;;;;52.15;35.70;;;5.40;99.90;;;;;;4903785;29;20058;-82
2022/03/23 05:19:45;;;;;;;55.65;38.28;;;5.40;99.90;;;;;;4893435;29;20091;-80
2022/03/23 05:22:12;;;;;;;54.15;38.63;;;5.40;99.90;;;;;;4872320;29;20052;-82
2022/03/23 05:24:41;;;;;;;51.85;36.42;;;5.40;99.90;;;;;;4873924;29;20054;-82
2022/03/23 05:27:11;;;;;;;59.53;39.63;;;5.30;99.90;;;;;;4903968;29;20080;-81
2022/03/23 05:29:36;;;;;;;56.85;39.20;;;5.40;99.90;;;;;;4904708;29;20060;-81
2022/03/23 05:32:03;;;;;;;62.08;40.28;;;5.30;99.90;;;;;;4905581;29;20099;-82
2022/03/23 05:34:29;;;;;;;55.05;38.78;;;5.40;99.90;;;;;;4888358;29;20048;-80
2022/03/23 05:36:55;;;;;;;56.05;38.05;;;5.30;99.90;;;;;;4887535;29;20056;-80
2022/03/23 05:39:20;;;;;;;56.92;38.35;;;5.80;99.90;;;;;;4894400;29;20713;-79
2022/03/23 05:41:46;;;;;;;57.58;39.78;;;5.30;99.90;;;;;;4903913;29;20064;-79
2022/03/23 05:44:12;;;;;;;58.72;39.45;;;5.30;99.90;;;;;;4889380;29;20487;-81
2022/03/23 05:46:38;;;;;;;58.95;39.88;;;5.30;99.90;;;;;;4887782;29;20070;-82
2022/03/23 05:49:04;;;;;;;60.00;39.83;;;6.10;99.90;;;;;;4903127;29;20499;-82
2022/03/23 05:51:30;;;;;;;54.55;37.35;;;5.40;99.90;;;;;;4903820;29;20051;-82
2022/03/23 05:53:56;;;;;;;55.60;37.85;;;5.30;99.90;;;;;;4903566;29;20052;-81
2022/03/23 05:56:22;;;;;;;56.85;38.03;;;5.40;99.90;;;;;;4872793;29;20051;-82
2022/03/23 05:58:48;;;;;;;58.70;39.85;;;5.40;99.90;;;;;;4903574;29;20063;-82
2022/03/23 06:01:14;;;;;;;58.97;39.17;;;5.40;99.90;;;;;;4889427;29;20048;-81
2022/03/23 06:03:40;;;;;;;58.13;40.08;;;5.40;99.90;;;;;;4918836;29;20063;-82
2022/03/23 06:06:06;;;;;;;58.63;40.35;;;5.40;99.90;;;;;;4886989;29;20376;-82
2022/03/23 06:08:32;;;;;;;57.55;39.13;;;5.50;99.90;;;;;;4904445;29;20052;-81
2022/03/23 06:10:58;;;;;;;56.65;38.45;;;5.50;99.90;;;;;;4887746;29;20517;-82
2022/03/23 06:13:24;;;;;;;55.83;38.45;;;5.50;99.90;;;;;;4888866;29;20048;-81
2022/03/23 06:15:50;;;;;;;61.55;40.63;;;5.50;99.90;;;;;;4870905;29;20080;-82
2022/03/23 06:18:15;;;;;;;58.75;40.25;;;5.50;99.90;;;;;;4887462;29;20053;-82
2022/03/23 06:20:41;;;;;;;56.10;38.40;;;6.30;99.90;;;;;;4902737;29;20048;-81
2022/03/23 06:23:07;;;;;;;59.72;38.83;;;5.50;99.90;;;;;;4893237;29;20126;-81
2022/03/23 06:25:33;;;;;;;56.08;38.42;;;5.60;99.90;;;;;;4886066;29;20123;-81
2022/03/23 06:27:59;;;;;;;59.10;39.65;;;5.60;99.90;;;;;;4904637;29;20076;-84
2022/03/23 06:30:24;;;;;;;57.05;38.80;;;5.60;99.90;;;;;;4888213;29;20075;-84
2022/03/23 06:32:50;;;;;;;56.90;38.72;;;5.60;99.90;;;;;;4887413;29;20051;-85
2022/03/23 06:35:16;;;;;;;60.25;39.30;;;5.70;99.90;;;;;;4878140;29;20136;-84
2022/03/23 06:37:42;;;;;;;60.22;40.25;;;5.70;99.90;;;;;;4887195;29;20060;-84
2022/03/23 06:40:09;;;;;;;53.45;38.35;;;5.80;99.90;;;;;;4902926;29;20052;-84
2022/03/23 06:42:35;;;;;;;61.42;40.97;;;5.80;99.90;;;;;;4872604;29;20111;-84
2022/03/23 06:45:03;;;;;;;59.80;40.08;;;5.80;99.90;;;;;;4885940;29;20052;-84
2022/03/23 06:47:32;;;;;;;58.47;39.45;;;5.80;99.90;;;;;;4891000;29;20209;-83
2022/03/23 06:49:58;;;;;;;57.60;38.15;;;5.90;99.90;;;;;;4875965;29;20052;-82
2022/03/23 06:52:24;;;;;;;55.78;39.20;;;5.90;99.90;;;;;;4869485;29;20047;-84
2022/03/23 06:54:50;;;;;;;62.53;39.92;;;6.00;99.90;;;;;;4869081;29;20044;-82
2022/03/23 06:57:15;;;;;;;66.30;42.10;;;6.10;99.90;;;;;;4886699;29;20063;-82
2022/03/23 06:59:41;;;;;;;61.85;40.60;;;6.10;99.90;;;;;;4885693;29;20048;-81
2022/03/23 07:02:08;;;;;;;57.78;38.90;;;6.20;99.90;;;;;;4866277;29;20079;-83
2022/03/23 07:04:34;;;;;;;62.95;41.95;;;6.20;99.90;;;;;;4888172;29;20542;-83
2022/03/23 07:07:01;;;;;;;62.92;42.47;;;6.30;99.90;;;;;;4906989;29;20096;-82
2022/03/23 07:09:32;;;;;;;69.65;44.30;;;6.40;99.90;;;;;;4887512;29;20103;-83
2022/03/23 07:12:03;;;;;;;65.47;43.20;;;6.40;99.90;;;;;;4887966;29;20048;-82
2022/03/23 07:14:31;;;;;;;63.10;42.08;;;6.50;99.90;;;;;;4907180;29;20052;-86
2022/03/23 07:16:57;;;;;;;60.35;41.85;;;6.10;99.90;;;;;;4883737;29;20149;-80
2022/03/23 07:19:23;;;;;;;68.35;44.75;;;6.70;99.90;;;;;;4907340;29;20112;-80
2022/03/23 07:21:50;;;;;;;66.82;44.83;;;7.00;99.90;;;;;;4885365;29;20713;-81
2022/03/23 07:24:15;;;;;;;63.80;42.85;;;7.10;99.90;;;;;;4870067;29;20505;-82
2022/03/23 07:26:41;;;;;;;66.47;45.65;;;7.00;99.90;;;;;;4868802;29;20044;-81
2022/03/23 07:29:07;;;;;;;72.28;48.38;;;7.20;99.90;;;;;;4868518;29;20166;-81
2022/03/23 07:31:34;;;;;;;70.57;46.83;;;7.30;99.90;;;;;;4880092;29;20055;-81
2022/03/23 07:34:00;;;;;;;66.93;44.75;;;7.50;99.90;;;;;;4923317;29;20048;-81
2022/03/23 07:36:26;;;;;;;65.85;45.63;;;7.60;99.90;;;;;;4886428;29;20060;-81
2022/03/23 07:38:52;;;;;;;63.03;45.45;;;7.80;99.90;;;;;;4892116;29;20052;-81
2022/03/23 07:41:21;;;;;;;61.08;43.50;;;7.90;99.90;;;;;;4888016;29;20114;-87
2022/03/23 07:43:47;;;;;;;65.82;42.35;;;8.20;99.90;;;;;;4903309;29;20052;-83
2022/03/23 07:46:17;;;;;;;63.65;44.58;;;8.30;99.90;;;;;;4885166;29;20435;-82
2022/03/23 07:48:43;;;;;;;63.65;44.10;;;8.50;99.90;;;;;;4902571;29;20093;-84
2022/03/23 07:51:09;;;;;;;58.72;41.97;;;8.60;99.90;;;;;;4886709;29;20112;-83
2022/03/23 07:53:38;;;;;;;63.28;44.20;;;8.80;99.90;;;;;;4904486;29;20087;-92
2022/03/23 07:56:04;;;;;;;61.05;42.47;;;9.00;99.90;;;;;;4887754;29;20653;-83
2022/03/23 07:58:30;;;;;;;56.42;41.60;;;9.30;99.90;;;;;;4910501;29;20048;-81
2022/03/23 08:00:56;;;;;;;57.92;40.63;;;9.50;99.90;;;;;;4888973;29;20110;-81
2022/03/23 08:03:22;;;;;;;56.97;39.90;;;9.70;99.90;;;;;;4905986;29;20052;-80
2022/03/23 08:05:48;;;;;;;53.83;39.80;;;10.00;99.90;;;;;;4890055;29;20053;-81
2022/03/23 08:08:14;;;;;;;51.92;38.53;;;10.20;99.90;;;;;;4904665;29;20122;-81
2022/03/23 08:10:42;;;;;;;48.45;37.50;;;10.50;99.90;;;;;;4904829;29;20052;-81
2022/03/23 08:13:16;;;;;;;48.55;36.67;;;10.80;99.90;;;;;;4888910;29;20106;-81
2022/03/23 08:15:42;;;;;;;47.95;35.53;;;11.10;99.90;;;;;;4889654;29;20048;-81
2022/03/23 08:18:08;;;;;;;46.25;34.90;;;11.40;99.90;;;;;;4888702;29;20064;-82
2022/03/23 08:20:35;;;;;;;44.00;33.03;;;11.60;99.90;;;;;;4906037;29;20071;-81
2022/03/23 08:23:15;;;;;;;43.00;32.35;;;11.90;99.90;;;;;;4887570;29;20525;-81
2022/03/23 08:25:42;;;;;;;42.20;33.85;;;12.10;99.90;;;;;;4896206;29;20569;-82
2022/03/23 08:28:10;;;;;;;42.30;34.08;;;12.40;99.90;;;;;;4927140;29;20094;-76
2022/03/23 08:30:36;;;;;;;41.30;33.08;;;12.60;99.90;;;;;;4895946;29;20069;-78
2022/03/23 08:33:03;;;;;;;38.03;27.90;;;12.90;99.90;;;;;;4887961;29;20059;-79
2022/03/23 08:35:31;;;;;;;37.47;27.58;;;13.10;99.90;;;;;;4912387;29;20061;-76
2022/03/23 08:37:57;;;;;;;33.67;26.42;;;13.30;99.90;;;;;;4904883;29;20063;-75
2022/03/23 08:40:23;;;;;;;35.13;27.15;;;13.60;99.90;;;;;;4895228;29;20060;-76
2022/03/23 08:42:49;;;;;;;37.08;27.05;;;13.90;99.90;;;;;;4904271;29;20047;-76
2022/03/23 08:45:16;;;;;;;36.20;28.30;;;14.20;99.90;;;;;;4903177;29;20134;-76
2022/03/23 08:47:43;;;;;;;37.38;27.60;;;14.40;99.90;;;;;;4895844;29;20495;-76
2022/03/23 08:50:11;;;;;;;30.00;25.58;;;14.70;99.90;;;;;;4894837;29;20052;-76
2022/03/23 08:52:38;;;;;;;30.77;25.52;;;14.90;99.90;;;;;;4919251;29;20151;-76
2022/03/23 08:55:06;;;;;;;33.08;26.77;;;15.20;99.90;;;;;;4904473;29;20123;-76
2022/03/23 08:57:32;;;;;;;32.20;26.33;;;15.40;99.90;;;;;;4904108;29;20491;-77
2022/03/23 08:59:58;;;;;;;31.75;26.75;;;15.60;99.90;;;;;;4889761;29;20055;-76
2022/03/23 09:02:23;;;;;;;35.22;28.45;;;15.90;99.90;;;;;;4904717;29;20919;-76
2022/03/23 09:04:49;;;;;;;35.08;28.98;;;15.70;99.90;;;;;;4904677;29;20087;-76
2022/03/23 09:07:15;;;;;;;35.25;27.42;;;16.40;99.90;;;;;;4889030;29;20569;-76
2022/03/23 09:09:40;;;;;;;33.88;26.10;;;16.70;99.90;;;;;;4904059;29;20040;-76
2022/03/23 09:12:07;;;;;;;29.50;24.95;;;16.90;99.90;;;;;;4904006;29;20048;-76
2022/03/23 09:14:33;;;;;;;29.63;25.13;;;17.20;99.90;;;;;;4904765;29;20071;-77
2022/03/23 09:16:58;;;;;;;30.55;25.00;;;17.40;99.90;;;;;;4888385;29;20056;-77
2022/03/23 09:19:24;;;;;;;28.05;23.98;;;17.60;99.90;;;;;;4874168;29;20060;-77
2022/03/23 09:21:50;;;;;;;33.42;24.80;;;17.90;99.90;;;;;;4871420;29;20490;-76
2022/03/23 09:24:19;;;;;;;31.20;25.58;;;18.10;99.90;;;;;;4894896;29;20155;-77
2022/03/23 09:26:46;;;;;;;29.08;23.45;;;18.40;99.90;;;;;;4904230;29;20056;-76
2022/03/23 09:29:12;;;;;;;29.80;23.85;;;18.60;99.90;;;;;;4903599;29;20052;-76
2022/03/23 09:31:38;;;;;;;28.67;22.10;;;18.80;99.90;;;;;;4904627;29;20048;-76
2022/03/23 09:34:05;;;;;;;27.63;22.38;;;19.10;99.90;;;;;;4903126;29;20048;-80
2022/03/23 09:39:24;;;;;;;25.88;22.02;;;19.40;99.90;;;;;;4891248;29;20108;-72
2022/03/23 09:41:51;;;;;;;26.65;22.55;;;19.60;99.90;;;;;;4903835;29;20081;-73
2022/03/23 09:44:17;;;;;;;27.17;23.23;;;19.80;99.90;;;;;;4909887;29;20498;-72
2022/03/23 09:46:43;;;;;;;27.00;21.85;;;20.00;99.90;;;;;;4887863;29;20071;-72
2022/03/23 09:49:09;;;;;;;23.52;20.33;;;20.20;99.90;;;;;;4903031;29;20052;-72
2022/03/23 09:51:37;;;;;;;30.65;21.85;;;20.40;99.90;;;;;;4903498;29;20052;-73
2022/03/23 09:54:04;;;;;;;24.98;21.08;;;20.60;99.90;;;;;;4904820;29;20120;-73
2022/03/23 09:56:30;;;;;;;24.40;20.75;;;20.70;99.90;;;;;;4902890;29;20064;-74
2022/03/23 09:58:56;;;;;;;25.55;20.52;;;20.80;99.90;;;;;;4901873;29;20048;-73
2022/03/23 10:01:34;;;;;;;22.77;19.65;;;20.80;99.90;;;;;;4885324;29;20056;-73
2022/03/23 10:04:18;;;;;;;22.90;19.02;;;20.90;99.70;;;;;;4902646;29;20088;-79
2022/03/23 10:06:54;;;;;;;22.73;19.17;;;21.00;99.60;;;;;;4888974;29;20044;-76
2022/03/23 10:09:20;;;;;;;20.38;17.70;;;21.30;99.20;;;;;;4903219;29;20104;-77
2022/03/23 10:12:01;;;;;;;19.83;16.10;;;21.50;99.10;;;;;;4886809;29;20048;-77
2022/03/23 10:15:06;;;;;;;20.95;16.55;;;21.80;97.60;;;;;;4901597;29;20072;-78
2022/03/23 10:17:58;;;;;;;21.70;16.75;;;22.00;93.60;;;;;;4901749;29;20499;-78
2022/03/23 10:20:24;;;;;;;20.10;16.65;;;22.20;94.30;;;;;;4886743;29;20573;-76
2022/03/23 10:22:53;;;;;;;21.65;17.10;;;22.30;94.70;;;;;;4902725;29;20064;-75
2022/03/23 10:25:26;;;;;;;18.80;15.80;;;22.60;93.90;;;;;;4902622;29;20105;-75
2022/03/23 10:27:54;;;;;;;22.15;17.17;;;22.80;93.20;;;;;;4903401;29;20122;-75
2022/03/23 10:30:38;;;;;;;19.50;16.67;;;23.10;92.20;;;;;;4887180;29;20092;-76
2022/03/23 10:33:15;;;;;;;20.88;15.57;;;23.20;89.40;;;;;;4886808;29;20048;-76
2022/03/23 10:35:40;;;;;;;20.05;16.00;;;23.40;89.90;;;;;;4925667;29;20055;-76
2022/03/23 10:38:15;;;;;;;17.63;15.50;;;23.60;88.80;;;;;;4901987;29;20044;-76
2022/03/23 10:40:43;;;;;;;19.45;15.13;;;23.80;81.40;;;;;;4902617;29;20127;-75
2022/03/23 10:43:11;;;;;;;17.52;14.70;;;24.00;82.60;;;;;;4901935;29;20074;-75
2022/03/23 10:45:37;;;;;;;17.83;14.95;;;24.20;80.90;;;;;;4918050;29;20071;-75
2022/03/23 10:48:12;;;;;;;17.85;14.48;;;24.30;77.40;;;;;;4902558;29;20063;-75
2022/03/23 10:50:56;;;;;;;20.23;15.13;;;24.40;73.40;;;;;;4904349;29;20056;-75
2022/03/23 10:53:37;;;;;;;18.73;15.15;;;24.60;70.10;;;;;;4886709;29;20055;-75
2022/03/23 10:56:04;;;;;;;17.77;15.18;;;24.60;69.10;;;;;;4903286;29;20078;-76
2022/03/23 10:58:32;;;;;;;18.15;14.95;;;24.70;71.20;;;;;;4887916;29;20052;-75
2022/03/23 11:01:03;;;;;;;20.25;14.77;;;24.80;70.30;;;;;;4902734;29;20134;-75
2022/03/23 11:03:39;;;;;;;19.13;15.38;;;24.90;68.20;;;;;;4910189;29;20064;-75
2022/03/23 11:06:07;;;;;;;18.38;15.10;;;24.90;65.40;;;;;;4903481;29;20236;-76
2022/03/23 11:08:33;;;;;;;19.42;15.23;;;25.00;66.80;;;;;;4887441;29;20607;-76
2022/03/23 11:16:37;;;;;;;20.35;15.35;;;25.40;64.20;;;;;;4918498;29;20084;-75
2022/03/23 11:19:07;;;;;;;20.00;15.55;;;25.60;64.70;;;;;;4902008;29;20123;-76
2022/03/23 11:21:33;;;;;;;20.60;15.80;;;25.80;63.00;;;;;;4887944;29;20056;-75
2022/03/23 11:23:58;;;;;;;17.88;14.63;;;26.00;62.00;;;;;;4902790;29;20853;-76
2022/03/23 11:26:27;;;;;;;21.08;15.77;;;26.20;62.60;;;;;;4886057;29;20063;-75
2022/03/23 11:28:55;;;;;;;18.52;14.95;;;26.20;59.10;;;;;;4902805;29;20052;-76
2022/03/23 11:31:21;;;;;;;23.10;15.05;;;26.20;59.00;;;;;;4903756;29;20131;-76
2022/03/23 11:33:52;;;;;;;19.88;15.38;;;26.30;58.70;;;;;;4890866;29;20080;-76
2022/03/23 11:36:19;;;;;;;19.60;14.80;;;26.50;57.30;;;;;;4905128;29;20056;-76
2022/03/23 11:38:51;;;;;;;20.45;14.82;;;26.60;56.80;;;;;;4906621;29;20635;-75
2022/03/23 11:41:19;;;;;;;20.08;13.18;;;26.70;56.40;;;;;;4921593;29;20044;-75
2022/03/23 11:43:44;;;;;;;20.63;13.35;;;26.90;55.10;;;;;;4890823;29;20057;-76
2022/03/23 11:46:11;;;;;;;17.65;14.07;;;26.90;53.00;;;;;;4905310;29;20147;-76
2022/03/23 11:48:55;;;;;;;19.52;13.48;;;27.00;52.70;;;;;;4905928;29;20395;-76
2022/03/23 11:51:49;;;;;;;18.77;13.02;;;27.00;52.20;;;;;;4905439;29;20115;-76
2022/03/23 11:54:26;;;;;;;17.05;12.43;;;27.20;52.00;;;;;;4888957;29;20071;-76
2022/03/23 11:56:58;;;;;;;19.77;13.27;;;27.30;51.30;;;;;;4905276;29;20074;-76
2022/03/23 11:59:24;;;;;;;18.85;13.05;;;27.40;51.30;;;;;;4905474;29;20060;-75
2022/03/23 12:01:50;;;;;;;17.63;13.07;;;27.40;51.20;;;;;;4906524;29;20513;-75
2022/03/23 12:04:19;;;;;;;19.10;13.55;;;27.50;50.60;;;;;;4904372;29;20064;-75
2022/03/23 12:06:45;;;;;;;16.40;12.80;;;27.50;50.30;;;;;;4905600;29;20049;-75
2022/03/23 12:09:37;;;;;;;19.85;13.27;;;27.50;49.90;;;;;;4912232;29;20056;-77
2022/03/23 12:12:05;;;;;;;20.00;12.48;;;27.60;48.80;;;;;;4905800;29;20079;-77
2022/03/23 12:14:35;;;;;;;20.60;12.40;;;27.70;49.60;;;;;;4904901;29;20047;-76
2022/03/23 12:17:11;;;;;;;15.55;10.90;;;27.70;48.20;;;;;;4889770;29;20115;-75
2022/03/23 12:20:03;;;;;;;18.08;13.45;;;27.60;47.40;;;;;;4890976;29;20473;-75
2022/03/23 12:22:35;;;;;;;23.38;12.45;;;27.70;47.10;;;;;;4905718;29;20926;-75
2022/03/23 12:25:03;;;;;;;17.52;13.02;;;27.90;48.50;;;;;;4889568;29;20399;-76
2022/03/23 12:27:45;;;;;;;16.48;12.50;;;28.00;48.10;;;;;;4889695;29;20456;-74
2022/03/23 12:30:26;;;;;;;16.90;13.13;;;28.20;47.30;;;;;;4921929;29;20056;-75
2022/03/23 12:32:56;;;;;;;19.63;13.88;;;28.40;47.10;;;;;;4890327;29;20048;-76
2022/03/23 12:35:33;;;;;;;25.27;13.63;;;28.60;47.50;;;;;;4904484;29;20045;-75
2022/03/23 12:37:59;;;;;;;27.10;24.25;;;28.70;45.90;;;;;;4888943;29;20514;-74
2022/03/23 12:40:40;;;;;;;28.20;25.30;;;28.60;49.10;;;;;;4887642;29;20055;-74
2022/03/23 12:43:05;;;;;;;29.63;24.20;;;28.30;51.30;;;;;;4920738;29;20048;-74
2022/03/23 12:45:39;;;;;;;26.95;24.20;;;28.20;52.30;;;;;;4886278;29;20071;-75
2022/03/23 12:59:23;;;;;;;26.67;24.08;;;27.60;53.80;;;;;;4889609;29;20088;-75
2022/03/23 13:02:35;;;;;;;26.98;23.00;;;27.70;54.10;;;;;;4908126;29;20131;-74
2022/03/23 13:05:05;;;;;;;26.92;24.20;;;27.90;52.50;;;;;;4887518;29;20127;-74
2022/03/23 13:07:31;;;;;;;25.85;23.05;;;27.90;54.00;;;;;;4919686;29;20622;-75
2022/03/23 13:10:04;;;;;;;24.92;22.42;;;28.10;53.50;;;;;;4889014;29;20044;-74